aviador You're here:

WAMM Decoded Metar

MANADO in INDONESIA
Report Time2017-11-19 21:30:00
UTC Time2017-11-19 21:42:51
Flight Rules vfr VFR
WindVRB at 01 kt
Visibility9999 m
Phenomena:N/A
Clouds:Scattered 021 Hf
CeilingNone
Temp24°C (ISA +10)
Dew Point24°C (100% RH)
QNH1009 hPa
Density Alt1,893 ft
Elevation262 ft
Report Wrong Elevation
Raw Report
WAMM 192130Z VRB01KT 9999 SCT021 24/24 Q1009 NOSIG=

Extra information for WAMM:More info

Metar Taf Metar & Taf Last 4 Metars F.Rules Stats Wind Profile Meteogram Temp Stats Airport Information Weather charts Add Link Nearby VenuesMetar ALERT Operation Metar Decoded Social comments